createdAt,value
2022-09-06T00:00:58.774Z,53.27
2022-09-06T00:03:28.072Z,53.54
2022-09-06T00:05:55.107Z,56.00
2022-09-06T00:08:21.781Z,57.08
2022-09-06T00:10:48.384Z,58.19
2022-09-06T00:13:14.953Z,57.81
2022-09-06T00:15:41.635Z,56.89
2022-09-06T00:18:08.630Z,55.42
2022-09-06T00:20:41.274Z,54.81
2022-09-06T00:23:08.473Z,53.87
2022-09-06T00:25:35.438Z,53.68
2022-09-06T00:28:06.325Z,53.37
2022-09-06T00:30:33.820Z,53.57
2022-09-06T00:33:00.367Z,54.10
2022-09-06T00:35:27.947Z,54.87
2022-09-06T00:37:59.380Z,55.13
2022-09-06T00:40:27.522Z,55.23
2022-09-06T00:42:54.040Z,55.60
2022-09-06T00:45:21.174Z,56.03
2022-09-06T00:47:48.668Z,55.89
2022-09-06T00:50:18.970Z,56.23
2022-09-06T00:52:48.952Z,56.89
2022-09-06T00:55:16.249Z,57.40
2022-09-06T00:57:43.839Z,57.55
2022-09-06T01:00:10.658Z,58.79
2022-09-06T01:02:37.435Z,61.25
2022-09-06T01:05:05.571Z,64.19
2022-09-06T01:07:35.051Z,70.06
2022-09-06T01:10:25.659Z,78.20
2022-09-06T01:13:05.610Z,78.69
2022-09-06T01:15:52.359Z,84.91
2022-09-06T01:18:31.337Z,91.34
2022-09-06T01:21:25.837Z,91.22
2022-09-06T01:23:55.480Z,92.14
2022-09-06T01:26:28.007Z,91.24
2022-09-06T01:28:55.029Z,91.10
2022-09-06T01:31:42.134Z,95.93
2022-09-06T01:34:08.625Z,96.16
2022-09-06T01:37:06.597Z,93.09
2022-09-06T01:39:36.585Z,92.76
2022-09-06T01:42:17.737Z,93.17
2022-09-06T01:44:53.673Z,94.70
2022-09-06T01:47:28.583Z,95.28
2022-09-06T01:50:33.617Z,96.57
2022-09-06T01:53:09.579Z,99.31
2022-09-06T01:56:18.947Z,100.00
2022-09-06T01:59:30.138Z,100.00
2022-09-06T02:02:12.935Z,100.00
2022-09-06T02:04:47.509Z,100.00
2022-09-06T02:07:26.360Z,99.95
2022-09-06T02:09:59.052Z,98.65
2022-09-06T02:12:29.697Z,98.44
2022-09-06T02:15:00.817Z,96.37
2022-09-06T02:17:32.305Z,98.71
2022-09-06T02:20:04.883Z,98.39
2022-09-06T02:22:36.196Z,97.91
2022-09-06T02:25:07.287Z,98.90
2022-09-06T02:27:34.415Z,99.68
2022-09-06T02:30:03.049Z,100.00
2022-09-06T02:32:32.268Z,100.00
2022-09-06T02:34:59.008Z,97.67
2022-09-06T02:37:28.564Z,97.67
2022-09-06T02:39:55.968Z,100.00
2022-09-06T02:42:24.173Z,99.06
2022-09-06T02:44:50.706Z,97.74
2022-09-06T02:47:17.480Z,97.93
2022-09-06T02:49:44.100Z,98.63
2022-09-06T02:52:10.680Z,98.31
2022-09-06T02:54:37.212Z,99.32
2022-09-06T02:57:03.899Z,100.00
2022-09-06T02:59:30.465Z,100.00
2022-09-06T03:01:57.127Z,94.73
2022-09-06T03:04:23.715Z,93.68
2022-09-06T03:06:50.360Z,93.10
2022-09-06T03:09:16.913Z,94.10
2022-09-06T03:11:43.522Z,95.62
2022-09-06T03:14:10.128Z,97.17
2022-09-06T03:16:38.467Z,99.43
2022-09-06T03:19:05.115Z,100.00
2022-09-06T03:21:32.060Z,100.00
2022-09-06T03:23:59.301Z,100.00
2022-09-06T03:26:26.383Z,99.96
2022-09-06T03:28:52.929Z,99.71
2022-09-06T03:31:19.579Z,99.93
2022-09-06T03:33:46.248Z,100.00
2022-09-06T03:36:13.761Z,99.71
2022-09-06T03:38:40.290Z,98.68
2022-09-06T03:41:06.852Z,98.96
2022-09-06T03:43:33.917Z,99.40
2022-09-06T03:46:00.597Z,98.99
2022-09-06T03:48:29.526Z,97.44
2022-09-06T03:50:58.055Z,97.50
2022-09-06T03:53:26.166Z,96.31
2022-09-06T03:55:54.572Z,96.47
2022-09-06T03:58:23.626Z,95.60
2022-09-06T04:01:00.335Z,95.87
2022-09-06T04:03:26.987Z,96.34
2022-09-06T04:05:53.536Z,95.53
2022-09-06T04:08:20.099Z,96.42
2022-09-06T04:10:50.251Z,96.34
2022-09-06T04:13:17.105Z,95.69
2022-09-06T04:15:47.661Z,96.12
2022-09-06T04:18:14.721Z,96.03
2022-09-06T04:20:41.562Z,94.46
2022-09-06T04:23:08.611Z,94.58
2022-09-06T04:25:35.374Z,94.68
2022-09-06T04:28:02.322Z,94.42
2022-09-06T04:30:29.047Z,94.07
2022-09-06T04:32:55.636Z,94.45
2022-09-06T04:35:22.517Z,94.34
2022-09-06T04:37:49.100Z,93.31
2022-09-06T04:40:15.819Z,94.04
2022-09-06T04:42:42.365Z,94.13
2022-09-06T04:45:09.591Z,93.62
2022-09-06T04:47:36.207Z,93.97
2022-09-06T04:50:02.876Z,93.75
2022-09-06T04:52:30.382Z,93.81
2022-09-06T04:54:57.144Z,93.53
2022-09-06T04:57:23.699Z,93.75
2022-09-06T04:59:50.281Z,94.46
2022-09-06T05:02:16.850Z,94.11
2022-09-06T05:04:43.525Z,94.40
2022-09-06T05:07:10.157Z,94.34
2022-09-06T05:09:36.853Z,94.27
2022-09-06T05:12:03.862Z,93.69
2022-09-06T05:14:30.934Z,93.34
2022-09-06T05:16:57.633Z,93.24
2022-09-06T05:19:24.281Z,93.52
2022-09-06T05:21:51.675Z,93.79
2022-09-06T05:24:18.489Z,93.59
2022-09-06T05:26:45.103Z,93.63
2022-09-06T05:29:11.764Z,92.57
2022-09-06T05:31:38.551Z,92.50
2022-09-06T05:34:05.620Z,92.60
2022-09-06T05:36:32.317Z,92.46
2022-09-06T05:38:59.297Z,91.96
2022-09-06T05:41:26.701Z,91.13
2022-09-06T05:43:53.301Z,90.80
2022-09-06T05:46:19.942Z,90.28
2022-09-06T05:49:00.983Z,90.30
2022-09-06T05:51:27.543Z,89.01
2022-09-06T05:53:54.126Z,88.79
2022-09-06T05:56:22.246Z,88.66
2022-09-06T05:58:48.836Z,87.29
2022-09-06T06:01:19.889Z,86.44
2022-09-06T06:04:04.031Z,88.16
2022-09-06T06:06:34.570Z,88.07
2022-09-06T06:09:01.203Z,88.34
2022-09-06T06:11:28.455Z,86.42
2022-09-06T06:13:55.314Z,86.75
2022-09-06T06:16:23.084Z,87.32
2022-09-06T06:18:52.174Z,86.92
2022-09-06T06:21:23.997Z,87.01
2022-09-06T06:23:53.416Z,87.51
2022-09-06T06:26:20.386Z,87.98
2022-09-06T06:28:47.326Z,87.65
2022-09-06T06:31:14.585Z,87.93
2022-09-06T06:33:41.642Z,88.79
2022-09-06T06:36:21.725Z,88.72
2022-09-06T06:38:49.922Z,88.73
2022-09-06T06:41:19.273Z,89.07
2022-09-06T06:43:45.850Z,88.59
2022-09-06T06:46:18.012Z,89.49
2022-09-06T06:48:45.955Z,88.83
2022-09-06T06:51:16.675Z,88.59
2022-09-06T06:53:47.708Z,88.09
2022-09-06T06:56:15.665Z,87.16
2022-09-06T06:58:42.678Z,87.75
2022-09-06T07:01:10.194Z,86.79
2022-09-06T07:03:36.908Z,86.61
2022-09-06T07:06:12.302Z,83.71
2022-09-06T07:08:39.814Z,83.37
2022-09-06T07:11:09.890Z,83.37
2022-09-06T07:13:37.053Z,83.69
2022-09-06T07:16:07.905Z,83.75
2022-09-06T07:18:35.068Z,82.32
2022-09-06T07:26:36.638Z,80.84
2022-09-06T07:29:05.283Z,79.03
2022-09-06T07:34:19.240Z,77.03
2022-09-06T07:36:45.907Z,76.10
2022-09-06T07:39:12.516Z,75.40
2022-09-06T07:41:39.133Z,73.14
2022-09-06T07:44:05.660Z,72.55
2022-09-06T07:46:32.278Z,72.88
2022-09-06T07:48:59.011Z,73.53
2022-09-06T07:51:25.607Z,72.10
2022-09-06T07:54:12.885Z,71.59
2022-09-06T07:56:41.996Z,72.01
2022-09-06T07:59:09.260Z,70.68
2022-09-06T08:01:40.377Z,68.90
2022-09-06T08:04:08.577Z,68.87
2022-09-06T08:09:25.076Z,67.52
2022-09-06T08:11:52.658Z,67.44
2022-09-06T08:14:19.919Z,68.04
2022-09-06T08:16:46.540Z,66.36
2022-09-06T08:19:13.421Z,67.58
2022-09-06T08:21:40.087Z,65.56
2022-09-06T08:24:09.621Z,65.97
2022-09-06T08:26:40.371Z,64.83
2022-09-06T08:29:08.769Z,63.11
2022-09-06T08:31:41.464Z,61.48
2022-09-06T08:34:08.655Z,62.58
2022-09-06T08:36:35.295Z,60.94
2022-09-06T08:39:05.603Z,60.32
2022-09-06T08:41:54.199Z,60.48
2022-09-06T08:47:19.454Z,59.83
2022-09-06T08:49:48.573Z,57.99
2022-09-06T08:52:34.644Z,58.62
2022-09-06T08:55:12.383Z,58.80
2022-09-06T08:57:53.844Z,58.47
2022-09-06T09:00:20.688Z,56.47
2022-09-06T09:02:52.785Z,57.43
2022-09-06T09:05:34.384Z,57.81
2022-09-06T09:08:12.915Z,55.80
2022-09-06T09:10:47.435Z,54.85
2022-09-06T09:13:32.908Z,56.02
2022-09-06T09:15:59.720Z,54.56
2022-09-06T09:18:33.461Z,54.31
2022-09-06T09:21:00.344Z,53.63
2022-09-06T09:23:29.107Z,53.02
2022-09-06T09:26:00.081Z,53.09
2022-09-06T09:28:26.669Z,53.19
2022-09-06T09:30:55.756Z,53.14
2022-09-06T09:33:28.109Z,52.48
2022-09-06T09:35:58.175Z,52.69
2022-09-06T09:38:28.478Z,51.92
2022-09-06T09:40:56.431Z,52.19
2022-09-06T09:43:25.670Z,50.70
2022-09-06T09:46:18.216Z,52.06
2022-09-06T09:49:28.685Z,51.65
2022-09-06T09:52:06.071Z,49.61
2022-09-06T09:54:37.291Z,50.54
2022-09-06T09:57:17.217Z,49.24
2022-09-06T10:00:02.049Z,49.76
2022-09-06T10:02:41.381Z,49.08
2022-09-06T10:05:13.719Z,49.79
2022-09-06T10:07:49.148Z,49.73
2022-09-06T10:10:26.024Z,49.47
2022-09-06T10:13:14.544Z,49.48
2022-09-06T10:15:41.574Z,49.06
2022-09-06T10:18:17.952Z,47.74
2022-09-06T10:20:51.699Z,49.15
2022-09-06T10:26:30.985Z,48.72
2022-09-06T10:29:05.875Z,48.12
2022-09-06T10:31:36.605Z,48.02
2022-09-06T10:34:33.173Z,48.04
2022-09-06T10:37:11.734Z,48.47
2022-09-06T10:40:03.014Z,48.58
2022-09-06T10:42:38.779Z,48.16
2022-09-06T10:45:29.087Z,48.48
2022-09-06T10:47:58.739Z,48.53
2022-09-06T10:50:43.709Z,48.74
2022-09-06T10:53:40.826Z,48.70
2022-09-06T10:56:13.371Z,48.46
2022-09-06T11:02:07.883Z,47.98
2022-09-06T11:07:36.779Z,48.88
2022-09-06T11:10:15.604Z,48.58
2022-09-06T11:13:02.794Z,48.93
2022-09-06T11:15:37.061Z,49.06
2022-09-06T11:18:15.572Z,49.12
2022-09-06T11:20:57.831Z,49.05
2022-09-06T11:23:48.233Z,47.92
2022-09-06T11:26:29.358Z,48.42
2022-09-06T11:29:01.581Z,48.55
2022-09-06T11:34:28.651Z,48.31
2022-09-06T11:36:58.799Z,48.33
2022-09-06T11:42:45.325Z,48.67
2022-09-06T11:45:11.785Z,49.57
2022-09-06T11:47:42.781Z,48.85
2022-09-06T11:50:21.534Z,48.98
2022-09-06T11:53:06.461Z,48.80
2022-09-06T11:55:39.162Z,48.71
2022-09-06T11:58:20.814Z,49.02
2022-09-06T12:01:13.347Z,48.90
2022-09-06T12:04:05.899Z,47.79
2022-09-06T12:07:03.488Z,48.66
2022-09-06T12:09:34.182Z,48.11
2022-09-06T12:12:01.299Z,47.90
2022-09-06T12:14:40.355Z,47.39
2022-09-06T12:17:09.783Z,47.78
2022-09-06T12:19:43.911Z,46.83
2022-09-06T12:22:41.302Z,47.44
2022-09-06T12:25:18.440Z,47.76
2022-09-06T12:27:56.838Z,47.95
2022-09-06T12:30:42.023Z,48.03
2022-09-06T12:33:17.295Z,47.83
2022-09-06T12:36:00.515Z,47.67
2022-09-06T12:38:28.921Z,47.12
2022-09-06T12:40:59.008Z,47.54
2022-09-06T12:43:26.244Z,46.88
2022-09-06T12:45:53.194Z,45.34
2022-09-06T12:48:31.606Z,45.20
2022-09-06T12:51:16.306Z,44.96
2022-09-06T12:53:54.963Z,44.45
2022-09-06T12:56:23.141Z,44.91
2022-09-06T12:58:49.756Z,44.57
2022-09-06T13:01:30.360Z,43.87
2022-09-06T13:04:22.999Z,43.22
2022-09-06T13:06:49.888Z,43.41
2022-09-06T13:09:20.292Z,43.70
2022-09-06T13:11:51.450Z,43.92
2022-09-06T13:14:25.738Z,43.97
2022-09-06T13:16:57.016Z,43.85
2022-09-06T13:19:38.478Z,43.85
2022-09-06T13:22:07.938Z,43.30
2022-09-06T13:24:34.449Z,41.73
2022-09-06T13:27:01.440Z,41.92
2022-09-06T13:29:32.138Z,42.83
2022-09-06T13:32:01.823Z,43.05
2022-09-06T13:34:33.285Z,42.75
2022-09-06T13:37:09.156Z,38.74
2022-09-06T13:39:40.101Z,37.35
2022-09-06T13:42:10.757Z,37.54
2022-09-06T13:44:40.570Z,37.76
2022-09-06T13:47:07.236Z,35.36
2022-09-06T13:49:33.970Z,35.38
2022-09-06T13:52:02.883Z,34.46
2022-09-06T13:54:33.262Z,34.31
2022-09-06T13:57:01.724Z,33.74
2022-09-06T13:59:28.936Z,33.76
2022-09-06T14:02:05.341Z,33.78
2022-09-06T14:04:32.470Z,33.86
2022-09-06T14:06:59.037Z,33.53
2022-09-06T14:09:25.560Z,34.33
2022-09-06T14:11:52.466Z,34.59
2022-09-06T14:14:19.435Z,34.27
2022-09-06T14:16:47.558Z,34.95
2022-09-06T14:19:14.764Z,35.34
2022-09-06T14:21:41.501Z,35.03
2022-09-06T14:24:08.117Z,35.58
2022-09-06T14:26:35.898Z,35.82
2022-09-06T14:29:03.935Z,34.78
2022-09-06T14:31:32.480Z,34.21
2022-09-06T14:33:59.594Z,33.83
2022-09-06T14:36:29.306Z,34.74
2022-09-06T14:38:58.452Z,34.23
2022-09-06T14:41:25.726Z,33.82
2022-09-06T14:43:55.164Z,33.98
2022-09-06T14:46:23.633Z,33.42
2022-09-06T14:48:59.310Z,32.83
2022-09-06T14:51:26.645Z,32.99
2022-09-06T14:53:56.640Z,32.68
2022-09-06T14:56:24.419Z,32.79
2022-09-06T14:58:51.013Z,32.55
2022-09-06T15:01:22.616Z,32.62
2022-09-06T15:03:55.873Z,32.40
2022-09-06T15:06:23.611Z,33.06
2022-09-06T15:08:50.544Z,32.94
2022-09-06T15:11:39.331Z,30.89
2022-09-06T15:14:08.990Z,32.11
2022-09-06T15:16:36.115Z,32.45
2022-09-06T15:19:03.454Z,32.64
2022-09-06T15:21:31.014Z,32.04
2022-09-06T15:23:57.977Z,32.11
2022-09-06T15:26:25.159Z,31.26
2022-09-06T15:28:52.257Z,31.25
2022-09-06T15:31:19.513Z,30.41
2022-09-06T15:33:48.868Z,30.58
2022-09-06T15:36:16.236Z,31.60
2022-09-06T15:38:46.981Z,31.54
2022-09-06T15:41:15.225Z,32.57
2022-09-06T15:43:47.072Z,31.53
2022-09-06T15:46:15.614Z,31.43
2022-09-06T15:48:50.167Z,32.29
2022-09-06T15:51:20.145Z,32.80
2022-09-06T15:53:47.324Z,32.13
2022-09-06T15:56:15.927Z,32.44
2022-09-06T15:58:43.344Z,32.39
2022-09-06T16:01:18.586Z,31.96
2022-09-06T16:03:46.368Z,30.60
2022-09-06T16:06:26.738Z,31.00
2022-09-06T16:08:59.983Z,31.58
2022-09-06T16:11:28.461Z,31.45
2022-09-06T16:13:55.694Z,31.40
2022-09-06T16:16:22.782Z,31.52
2022-09-06T16:18:49.742Z,31.67
2022-09-06T16:21:21.484Z,31.63
2022-09-06T16:23:57.228Z,31.53
2022-09-06T16:26:26.598Z,31.15
2022-09-06T16:28:53.598Z,30.98
2022-09-06T16:31:21.597Z,31.46
2022-09-06T16:33:49.199Z,31.65
2022-09-06T16:36:16.680Z,31.26
2022-09-06T16:38:43.602Z,31.80
2022-09-06T16:41:22.473Z,31.75
2022-09-06T16:43:49.462Z,31.67
2022-09-06T16:46:16.426Z,31.90
2022-09-06T16:48:43.613Z,32.35
2022-09-06T16:51:17.929Z,32.51
2022-09-06T16:53:46.575Z,32.63
2022-09-06T16:56:16.113Z,32.78
2022-09-06T16:58:44.389Z,31.60
2022-09-06T17:01:11.039Z,31.41
2022-09-06T17:03:38.909Z,31.01
2022-09-06T17:06:06.808Z,31.48
2022-09-06T17:08:35.248Z,31.74
2022-09-06T17:11:08.585Z,31.63
2022-09-06T17:13:36.067Z,31.91
2022-09-06T17:16:22.508Z,32.21
2022-09-06T17:18:49.931Z,32.08
2022-09-06T17:21:16.535Z,31.62
2022-09-06T17:23:43.515Z,31.49
2022-09-06T17:26:10.492Z,31.11
2022-09-06T17:28:38.118Z,31.00
2022-09-06T17:31:05.581Z,31.36
2022-09-06T17:33:33.764Z,31.66
2022-09-06T17:36:16.940Z,31.50
2022-09-06T17:38:47.886Z,31.67
2022-09-06T17:41:28.234Z,31.97
2022-09-06T17:43:55.384Z,32.13
2022-09-06T17:46:28.381Z,32.07
2022-09-06T17:48:56.074Z,32.81
2022-09-06T17:51:23.043Z,33.03
2022-09-06T17:53:49.670Z,33.25
2022-09-06T17:56:18.221Z,33.45
2022-09-06T17:58:53.988Z,33.53
2022-09-06T18:01:21.505Z,33.73
2022-09-06T18:03:48.221Z,33.87
2022-09-06T18:06:19.893Z,34.12
2022-09-06T18:08:47.916Z,34.35
2022-09-06T18:11:17.949Z,34.54
2022-09-06T18:13:45.105Z,34.36
2022-09-06T18:16:14.037Z,34.27
2022-09-06T18:18:41.651Z,34.53
2022-09-06T18:21:08.209Z,34.79
2022-09-06T18:23:35.768Z,34.76
2022-09-06T18:26:08.094Z,34.96
2022-09-06T18:28:36.718Z,35.53
2022-09-06T18:31:18.568Z,35.99
2022-09-06T18:33:45.755Z,36.33
2022-09-06T18:36:15.513Z,36.64
2022-09-06T18:38:45.385Z,36.81
2022-09-06T18:41:34.121Z,37.03
2022-09-06T18:44:05.220Z,37.16
2022-09-06T18:46:34.030Z,37.64
2022-09-06T18:49:00.870Z,37.69
2022-09-06T18:51:28.084Z,38.86
2022-09-06T18:53:57.665Z,38.64
2022-09-06T18:56:25.199Z,39.23
2022-09-06T18:58:58.806Z,38.58
2022-09-06T19:01:29.256Z,38.02
2022-09-06T19:04:00.541Z,37.83
2022-09-06T19:06:29.313Z,38.12
2022-09-06T19:09:04.523Z,39.09
2022-09-06T19:11:31.687Z,38.65
2022-09-06T19:13:58.422Z,38.83
2022-09-06T19:16:27.466Z,38.50
2022-09-06T19:18:58.550Z,38.64
2022-09-06T19:21:25.948Z,38.88
2022-09-06T19:24:01.462Z,39.05
2022-09-06T19:26:29.112Z,38.43
2022-09-06T19:29:01.027Z,38.63
2022-09-06T19:31:36.843Z,39.50
2022-09-06T19:34:04.245Z,40.04
2022-09-06T19:36:31.903Z,39.81
2022-09-06T19:39:04.327Z,39.47
2022-09-06T19:41:33.903Z,39.32
2022-09-06T19:44:01.581Z,39.76
2022-09-06T19:46:28.235Z,39.51
2022-09-06T19:48:58.774Z,39.35
2022-09-06T19:51:25.682Z,39.94
2022-09-06T19:53:54.726Z,39.92
2022-09-06T19:56:27.169Z,39.88
2022-09-06T19:58:55.708Z,40.61
2022-09-06T20:01:24.072Z,40.70
2022-09-06T20:03:51.457Z,40.53
2022-09-06T20:06:18.418Z,40.79
2022-09-06T20:08:50.496Z,40.90
2022-09-06T20:11:18.426Z,41.27
2022-09-06T20:13:45.449Z,41.40
2022-09-06T20:16:14.199Z,41.92
2022-09-06T20:18:41.084Z,42.73
2022-09-06T20:21:08.397Z,42.88
2022-09-06T20:23:35.651Z,43.19
2022-09-06T20:26:08.070Z,43.73
2022-09-06T20:28:35.248Z,43.80
2022-09-06T20:31:06.238Z,44.27
2022-09-06T20:33:33.806Z,44.55
2022-09-06T20:36:05.368Z,44.75
2022-09-06T20:38:34.092Z,45.05
2022-09-06T20:41:12.186Z,45.64
2022-09-06T20:43:39.876Z,46.33
2022-09-06T20:46:14.688Z,46.84
2022-09-06T20:48:44.854Z,47.19
2022-09-06T20:51:19.346Z,47.39
2022-09-06T20:53:54.733Z,48.14
2022-09-06T20:56:24.817Z,48.35
2022-09-06T20:59:02.510Z,48.29
2022-09-06T21:01:31.674Z,49.13
2022-09-06T21:04:00.036Z,49.85
2022-09-06T21:06:29.187Z,49.89
2022-09-06T21:08:56.792Z,50.13
2022-09-06T21:11:23.968Z,49.82
2022-09-06T21:13:52.548Z,49.64
2022-09-06T21:16:24.187Z,49.65
2022-09-06T21:18:56.153Z,50.20
2022-09-06T21:21:23.721Z,50.65
2022-09-06T21:23:50.300Z,50.62
2022-09-06T21:26:17.568Z,50.85
2022-09-06T21:28:45.428Z,50.66
2022-09-06T21:31:23.842Z,51.04
2022-09-06T21:33:55.378Z,50.86
2022-09-06T21:36:29.204Z,50.88
2022-09-06T21:39:01.662Z,49.96
2022-09-06T21:41:29.828Z,50.00
2022-09-06T21:43:58.510Z,50.00
2022-09-06T21:46:31.715Z,50.05
2022-09-06T21:49:01.591Z,50.05
2022-09-06T21:51:28.203Z,49.97
2022-09-06T21:53:56.904Z,50.03
2022-09-06T21:56:24.201Z,49.86
2022-09-06T21:58:52.996Z,49.60
2022-09-06T22:01:19.660Z,49.63
2022-09-06T22:03:46.319Z,49.29
2022-09-06T22:06:16.932Z,49.21
2022-09-06T22:08:43.910Z,49.13
2022-09-06T22:11:23.309Z,48.84
2022-09-06T22:13:51.031Z,48.52
2022-09-06T22:16:20.223Z,48.97
2022-09-06T22:18:48.836Z,48.75
2022-09-06T22:21:19.965Z,48.75
2022-09-06T22:24:01.699Z,49.08
2022-09-06T22:26:30.537Z,49.14
2022-09-06T22:28:59.916Z,49.22
2022-09-06T22:31:28.445Z,49.24
2022-09-06T22:33:55.327Z,48.69
2022-09-06T22:36:23.758Z,48.46
2022-09-06T22:38:56.170Z,48.72
2022-09-06T22:41:28.095Z,48.10
2022-09-06T22:43:55.060Z,47.84
2022-09-06T22:46:21.747Z,47.80
2022-09-06T22:48:49.176Z,48.45
2022-09-06T22:51:16.429Z,49.11
2022-09-06T22:53:43.076Z,51.33
2022-09-06T22:56:09.692Z,53.65
2022-09-06T22:58:36.302Z,56.50
2022-09-06T23:01:11.714Z,60.53
2022-09-06T23:03:38.926Z,59.93
2022-09-06T23:06:06.164Z,59.08
2022-09-06T23:08:34.685Z,59.38
2022-09-06T23:11:06.910Z,61.30
2022-09-06T23:13:33.892Z,63.11
2022-09-06T23:16:05.958Z,70.49
2022-09-06T23:18:32.700Z,77.42
2022-09-06T23:21:14.021Z,88.26
2022-09-06T23:23:41.618Z,93.67
2022-09-06T23:26:13.573Z,100.00
2022-09-06T23:28:40.550Z,100.00
2022-09-06T23:31:10.277Z,100.00
2022-09-06T23:33:37.165Z,100.00
2022-09-06T23:36:09.513Z,100.00
2022-09-06T23:38:37.815Z,100.00
2022-09-06T23:41:05.901Z,100.00
2022-09-06T23:43:32.755Z,100.00
2022-09-06T23:45:59.346Z,100.00
2022-09-06T23:48:26.021Z,100.00
2022-09-06T23:50:52.692Z,100.00
2022-09-06T23:53:19.507Z,100.00
2022-09-06T23:55:46.181Z,100.00
2022-09-06T23:58:13.338Z,100.00
